Time;durP1;ratioP1;P1;durP2;ratioP2;P2;SDS_P1;SDS_P2;PMS_P1;PMS_P2;Temp;Humidity;BMP_temperature;BMP_pressure;BME280_temperature;BME280_humidity;BME280_pressure;Samples;Min_cycle;Max_cycle;Signal;HPM_P1;HPM_P2
2021/09/30 00:02:21;;;;;;;18.98;8.63;;;;;;;12.51;66.86;101698.59;1675120;85;21031;-84
2021/09/30 00:04:47;;;;;;;23.22;8.95;;;;;;;12.50;66.96;101702.98;1675453;85;21567;-84
2021/09/30 00:07:14;;;;;;;20.95;8.73;;;;;;;12.50;67.02;101704.30;1676558;85;21195;-91
2021/09/30 00:09:45;;;;;;;24.02;8.83;;;;;;;12.52;67.14;101713.56;1677850;85;21023;-92
2021/09/30 00:12:14;;;;;;;19.25;9.18;;;;;;;12.53;67.18;101708.34;1677758;85;21725;-84
2021/09/30 00:14:44;;;;;;;20.68;9.48;;;;;;;12.55;67.25;101704.44;1677230;84;21070;-84
2021/09/30 00:17:25;;;;;;;20.85;8.55;;;;;;;12.53;67.34;101701.73;1676760;83;21042;-85
2021/09/30 00:33:35;;;;;;;20.00;8.93;;;;;;;12.59;67.86;101704.60;1678354;85;21528;-93
2021/09/30 00:49:23;;;;;;;21.40;10.58;;;;;;;12.64;68.17;101712.66;1678431;85;21049;-92
2021/09/30 00:51:58;;;;;;;18.65;10.28;;;;;;;12.62;68.28;101715.67;1677085;85;21804;-93
2021/09/30 01:20:46;;;;;;;26.65;13.58;;;;;;;12.80;69.17;101729.88;1653679;86;22618;-91
2021/09/30 02:26:57;;;;;;;27.05;17.25;;;;;;;12.72;73.60;101756.05;1677486;85;21101;-85
2021/09/30 02:59:18;;;;;;;26.57;20.17;;;;;;;12.59;75.02;101748.58;1677875;85;21121;-86
2021/09/30 03:01:46;;;;;;;26.62;20.85;;;;;;;12.56;75.16;101752.03;1677668;85;21089;-86
2021/09/30 03:04:14;;;;;;;31.27;21.70;;;;;;;12.57;75.37;101766.13;1677739;85;21585;-88
2021/09/30 03:06:42;;;;;;;26.48;21.12;;;;;;;12.56;75.48;101764.34;1677761;84;20995;-88
2021/09/30 03:09:11;;;;;;;29.18;21.17;;;;;;;12.59;75.58;101771.03;1675467;84;22613;-87
2021/09/30 03:11:39;;;;;;;27.67;21.35;;;;;;;12.57;75.69;101767.45;1675891;85;21063;-93
2021/09/30 03:14:07;;;;;;;28.10;21.73;;;;;;;12.55;75.80;101773.99;1675830;85;21022;-94
2021/09/30 03:16:45;;;;;;;30.90;22.32;;;;;;;12.56;75.89;101777.55;1675721;85;21003;-91
2021/09/30 03:19:31;;;;;;;31.23;22.73;;;;;;;12.57;76.08;101784.61;1654227;85;21120;-91
2021/09/30 03:24:32;;;;;;;31.87;23.73;;;;;;;12.58;76.19;101778.06;1675564;85;21520;-93
2021/09/30 03:26:59;;;;;;;31.52;22.35;;;;;;;12.61;76.25;101771.98;1676073;85;21034;-92
2021/09/30 03:29:26;;;;;;;34.35;24.52;;;;;;;12.61;76.30;101761.01;1675941;85;21081;-93
2021/09/30 03:31:52;;;;;;;32.10;23.98;;;;;;;12.64;76.40;101765.05;1653362;85;21026;-92
2021/09/30 03:34:19;;;;;;;33.25;22.75;;;;;;;12.66;76.44;101773.47;1674838;85;21742;-92
2021/09/30 03:36:46;;;;;;;34.18;24.27;;;;;;;12.64;76.48;101775.62;1675678;85;21069;-92
2021/09/30 03:39:15;;;;;;;34.58;23.57;;;;;;;12.63;76.48;101775.56;1675746;85;21002;-86
2021/09/30 03:41:42;;;;;;;31.97;25.20;;;;;;;12.64;76.64;101765.48;1675730;85;21081;-91
2021/09/30 03:44:10;;;;;;;28.55;24.37;;;;;;;12.67;76.72;101767.31;1675865;85;21054;-92
2021/09/30 03:46:38;;;;;;;31.33;24.32;;;;;;;12.71;76.80;101766.59;1697695;83;21805;-92
2021/09/30 03:49:11;;;;;;;32.65;23.47;;;;;;;12.71;76.75;101767.48;1708768;83;21467;-90
2021/09/30 03:56:51;;;;;;;30.62;23.87;;;;;;;12.75;76.95;101762.77;1699946;82;21019;-84
2021/09/30 03:59:19;;;;;;;32.73;23.85;;;;;;;12.78;77.06;101764.20;1679339;84;21821;-84
2021/09/30 04:02:00;;;;;;;36.65;25.32;;;;;;;12.80;77.08;101766.86;1677292;85;21115;-86
2021/09/30 04:04:34;;;;;;;35.83;25.72;;;;;;;12.82;77.11;101770.48;1678542;85;21082;-89
2021/09/30 04:07:05;;;;;;;33.83;25.48;;;;;;;12.83;77.10;101767.86;1677754;83;21320;-86
2021/09/30 04:09:33;;;;;;;32.05;24.70;;;;;;;12.85;77.22;101762.63;1702237;82;21065;-84
2021/09/30 04:12:01;;;;;;;30.57;24.98;;;;;;;12.86;77.18;101757.84;1721702;82;21624;-89
2021/09/30 04:14:28;;;;;;;31.93;24.92;;;;;;;12.85;77.21;101763.95;1720069;83;21524;-85
2021/09/30 04:16:55;;;;;;;34.80;27.32;;;;;;;12.88;77.32;101781.23;1720312;83;21019;-91
2021/09/30 04:19:22;;;;;;;34.90;26.12;;;;;;;12.87;77.34;101783.83;1720645;83;21505;-91
2021/09/30 04:21:50;;;;;;;32.93;25.68;;;;;;;12.87;77.46;101785.14;1720778;83;21086;-91
2021/09/30 04:24:17;;;;;;;32.83;26.25;;;;;;;12.89;77.52;101783.02;1720806;83;21757;-89
2021/09/30 04:26:44;;;;;;;38.30;27.30;;;;;;;12.89;77.54;101788.30;1720692;82;20980;-89
2021/09/30 04:29:10;;;;;;;38.60;26.77;;;;;;;12.92;77.61;101784.88;1720562;83;21528;-91
2021/09/30 04:31:38;;;;;;;38.05;28.12;;;;;;;12.93;77.62;101780.05;1720465;83;21172;-91
2021/09/30 04:34:05;;;;;;;41.63;28.90;;;;;;;12.95;77.65;101789.84;1720999;83;21063;-93
2021/09/30 04:36:31;;;;;;;39.85;29.12;;;;;;;12.94;77.69;101789.36;1720731;83;22565;-92
2021/09/30 04:38:58;;;;;;;39.85;31.17;;;;;;;12.93;77.74;101784.94;1720654;82;21058;-88
2021/09/30 04:41:25;;;;;;;39.08;29.32;;;;;;;12.92;77.77;101784.45;1720821;83;21046;-92
2021/09/30 04:43:51;;;;;;;42.45;31.93;;;;;;;12.93;77.81;101781.37;1721345;82;21055;-94
2021/09/30 04:46:20;;;;;;;41.53;28.90;;;;;;;12.92;77.94;101788.41;1721114;83;20995;-91
2021/09/30 04:48:48;;;;;;;42.15;29.90;;;;;;;12.93;78.04;101790.22;1678373;83;21831;-94
2021/09/30 04:51:15;;;;;;;41.95;29.92;;;;;;;12.90;78.14;101777.33;1720699;83;21101;-85
2021/09/30 04:53:42;;;;;;;47.55;30.75;;;;;;;13.00;78.19;101796.58;1720529;83;21082;-90
2021/09/30 04:56:22;;;;;;;42.00;30.45;;;;;;;13.00;78.16;101802.75;1720800;83;20995;-93
2021/09/30 04:58:49;;;;;;;45.70;31.95;;;;;;;13.02;78.28;101806.34;1721050;82;21081;-91
2021/09/30 05:01:15;;;;;;;41.00;30.72;;;;;;;12.99;78.25;101808.91;1720989;83;21752;-91
2021/09/30 05:03:42;;;;;;;50.75;32.80;;;;;;;12.99;78.30;101810.23;1720461;83;21031;-89
2021/09/30 05:06:09;;;;;;;47.53;33.42;;;;;;;13.00;78.38;101810.68;1720571;83;21042;-88
2021/09/30 05:08:36;;;;;;;50.98;35.33;;;;;;;13.01;78.45;101808.53;1717375;82;20999;-95
2021/09/30 05:11:03;;;;;;;50.90;34.20;;;;;;;13.01;78.50;101818.21;1712187;82;21564;-88
2021/09/30 05:13:36;;;;;;;48.95;32.30;;;;;;;13.03;78.59;101817.83;1705813;83;22555;-85
2021/09/30 05:16:05;;;;;;;52.93;33.50;;;;;;;13.02;78.55;101816.91;1706371;84;21062;-85
2021/09/30 05:18:32;;;;;;;49.65;34.35;;;;;;;13.03;78.68;101817.40;1705397;83;21510;-86
2021/09/30 05:20:59;;;;;;;47.48;33.48;;;;;;;13.05;78.68;101819.21;1707819;83;21039;-84
2021/09/30 05:23:26;;;;;;;47.13;33.10;;;;;;;13.06;78.67;101824.95;1705857;83;21762;-85
2021/09/30 05:25:52;;;;;;;52.85;36.60;;;;;;;13.06;78.73;101831.56;1705550;83;21738;-85
2021/09/30 05:28:19;;;;;;;48.90;34.45;;;;;;;13.07;78.73;101834.69;1705269;84;21039;-84
2021/09/30 05:30:45;;;;;;;52.60;35.45;;;;;;;13.07;78.79;101835.58;1706551;83;21027;-85
2021/09/30 05:33:12;;;;;;;51.42;33.25;;;;;;;13.09;78.79;101832.55;1704929;83;21073;-86
2021/09/30 05:35:39;;;;;;;46.02;34.90;;;;;;;13.11;78.84;101842.75;1705731;83;21664;-85
2021/09/30 05:38:05;;;;;;;49.33;34.35;;;;;;;13.12;78.91;101845.88;1705734;83;21741;-85
2021/09/30 05:40:32;;;;;;;49.98;33.23;;;;;;;13.14;78.91;101846.83;1705602;84;21014;-85
2021/09/30 05:43:01;;;;;;;49.13;34.40;;;;;;;13.16;78.91;101846.88;1705639;82;21081;-85
2021/09/30 05:45:27;;;;;;;47.10;34.33;;;;;;;13.18;78.99;101851.36;1705699;84;21086;-85
2021/09/30 05:47:54;;;;;;;46.98;34.45;;;;;;;13.20;78.99;101848.34;1705743;83;21116;-85
2021/09/30 05:50:21;;;;;;;48.42;33.42;;;;;;;13.25;79.01;101849.83;1705791;82;21753;-85
2021/09/30 05:52:47;;;;;;;50.00;34.67;;;;;;;13.27;78.90;101854.73;1705701;82;21587;-85
2021/09/30 05:55:14;;;;;;;47.83;33.30;;;;;;;13.31;78.98;101858.41;1705718;82;21046;-85
2021/09/30 05:57:43;;;;;;;49.98;34.55;;;;;;;13.35;78.99;101864.27;1705605;84;21146;-85
2021/09/30 06:00:19;;;;;;;49.85;32.95;;;;;;;13.36;78.84;101866.95;1705775;83;21030;-85
2021/09/30 06:16:10;;;;;;;48.48;33.30;;;;;;;13.47;78.88;101867.70;1703024;84;21740;-84
2021/09/30 06:18:34;;;;;;;41.83;31.87;;;;;;;13.53;78.79;101873.17;1702584;84;21261;-84
2021/09/30 06:21:01;;;;;;;46.50;31.27;;;;;;;13.69;79.00;101875.45;1702792;84;21042;-85
2021/09/30 06:23:28;;;;;;;49.40;31.33;;;;;;;13.86;78.84;101869.77;1703055;84;21097;-85
2021/09/30 06:25:54;;;;;;;40.90;29.50;;;;;;;14.07;78.83;101870.81;1703136;84;21073;-85
2021/09/30 06:28:21;;;;;;;39.92;29.10;;;;;;;14.19;78.37;101876.03;1702989;84;21722;-85
2021/09/30 06:30:48;;;;;;;37.23;27.70;;;;;;;14.24;78.00;101871.28;1703100;83;21560;-85
2021/09/30 06:33:17;;;;;;;36.85;28.10;;;;;;;14.33;78.11;101881.70;1702995;84;21066;-85
2021/09/30 06:35:44;;;;;;;34.63;25.80;;;;;;;14.44;77.91;101885.09;1703117;84;21070;-85
2021/09/30 06:38:11;;;;;;;31.23;24.95;;;;;;;14.58;77.83;101886.37;1702909;84;21039;-85
2021/09/30 06:40:37;;;;;;;36.15;25.48;;;;;;;14.75;77.77;101881.52;1703071;84;21745;-85
2021/09/30 06:43:04;;;;;;;34.55;25.40;;;;;;;14.89;77.48;101885.86;1703069;84;21062;-84
2021/09/30 06:45:31;;;;;;;34.18;25.25;;;;;;;15.00;77.21;101891.41;1703078;83;21556;-85
2021/09/30 06:47:58;;;;;;;37.63;23.55;;;;;;;15.03;76.83;101894.16;1703134;84;21058;-85
2021/09/30 06:50:25;;;;;;;34.98;24.43;;;;;;;15.01;76.56;101895.44;1703283;84;21078;-85
2021/09/30 06:52:51;;;;;;;35.33;24.82;;;;;;;15.08;76.52;101895.17;1703295;84;21736;-85
2021/09/30 06:55:18;;;;;;;32.60;25.02;;;;;;;15.10;76.30;101895.66;1703164;84;21046;-85
2021/09/30 06:57:46;;;;;;;30.05;22.87;;;;;;;15.08;75.97;101902.69;1703163;82;21050;-85
2021/09/30 07:00:13;;;;;;;27.65;21.90;;;;;;;15.00;75.58;101894.98;1702935;84;21046;-85
2021/09/30 07:02:41;;;;;;;28.77;22.30;;;;;;;14.86;75.42;101895.05;1703216;83;21078;-85
2021/09/30 07:05:10;;;;;;;25.62;19.30;;;;;;;14.66;75.22;101886.16;1703116;84;21829;-84
2021/09/30 07:07:36;;;;;;;21.90;17.50;;;;;;;14.66;75.09;101908.69;1702980;84;21101;-85
2021/09/30 07:10:04;;;;;;;22.50;16.82;;;;;;;14.54;74.98;101905.22;1719674;83;21108;-85
2021/09/30 07:12:31;;;;;;;21.85;14.70;;;;;;;14.48;75.00;101904.18;1723655;83;21066;-85
2021/09/30 07:14:58;;;;;;;17.15;14.68;;;;;;;14.47;74.96;101910.31;1713460;82;21051;-85
2021/09/30 07:17:25;;;;;;;22.75;14.93;;;;;;;14.47;74.96;101906.34;1711145;82;21754;-85
2021/09/30 07:19:51;;;;;;;21.17;13.35;;;;;;;14.50;74.86;101912.63;1710895;83;21516;-85
2021/09/30 07:22:18;;;;;;;16.55;12.13;;;;;;;14.52;74.62;101910.91;1710666;82;21121;-85
2021/09/30 07:24:45;;;;;;;16.25;12.30;;;;;;;14.51;74.63;101919.73;1710680;83;21027;-85
2021/09/30 07:27:11;;;;;;;13.83;11.18;;;;;;;14.59;74.76;101916.00;1711309;83;21071;-89
2021/09/30 07:29:39;;;;;;;12.10;9.48;;;;;;;14.70;74.64;101911.88;1711391;82;21905;-89
2021/09/30 07:32:06;;;;;;;11.12;9.18;;;;;;;14.76;74.35;101912.04;1711218;83;21038;-90
2021/09/30 07:34:33;;;;;;;9.95;8.63;;;;;;;14.84;74.10;101906.05;1711669;82;21608;-89
2021/09/30 07:37:00;;;;;;;12.90;8.95;;;;;;;14.85;73.90;101910.50;1711565;83;21062;-89
2021/09/30 07:39:28;;;;;;;11.38;8.75;;;;;;;14.93;73.95;101912.48;1711590;83;21085;-89
2021/09/30 07:41:55;;;;;;;11.15;8.08;;;;;;;15.00;73.67;101921.91;1711645;82;21689;-89
2021/09/30 07:44:21;;;;;;;9.70;8.08;;;;;;;15.04;73.29;101926.45;1711431;83;21003;-89
2021/09/30 07:46:48;;;;;;;9.73;8.10;;;;;;;15.09;73.15;101927.04;1711688;83;21006;-89
2021/09/30 07:49:15;;;;;;;10.03;8.00;;;;;;;15.13;72.94;101924.92;1711582;83;21105;-89
2021/09/30 07:51:42;;;;;;;8.98;8.03;;;;;;;15.17;72.67;101920.59;1711508;83;21065;-89
2021/09/30 07:54:09;;;;;;;8.33;7.20;;;;;;;15.23;72.43;101919.41;1711447;83;21729;-89
2021/09/30 07:56:35;;;;;;;7.40;6.60;;;;;;;15.30;72.43;101921.80;1711083;83;21031;-89
2021/09/30 07:59:02;;;;;;;10.82;6.72;;;;;;;15.42;72.28;101925.17;1711421;83;21081;-89
2021/09/30 08:01:29;;;;;;;7.05;5.90;;;;;;;15.51;72.06;101926.72;1711479;83;21599;-89
2021/09/30 08:03:57;;;;;;;6.50;5.22;;;;;;;15.55;71.71;101921.50;1711621;83;21102;-89
2021/09/30 08:06:24;;;;;;;7.30;5.17;;;;;;;15.62;71.52;101931.84;1711442;83;21769;-89
2021/09/30 08:08:51;;;;;;;12.13;7.10;;;;;;;15.68;71.41;101942.59;1713554;83;21100;-89
2021/09/30 08:11:18;;;;;;;7.87;5.58;;;;;;;15.76;71.22;101941.47;1719620;83;21109;-88
2021/09/30 08:13:45;;;;;;;10.43;6.17;;;;;;;15.76;71.00;101948.11;1718619;83;21084;-89
2021/09/30 08:16:14;;;;;;;13.40;7.25;;;;;;;15.77;70.75;101955.67;1718837;83;21650;-88
2021/09/30 08:18:40;;;;;;;9.15;6.28;;;;;;;15.78;70.59;101960.98;1718133;83;21860;-89
2021/09/30 08:21:12;;;;;;;13.28;6.55;;;;;;;15.68;70.14;101958.95;1718283;83;21141;-88
2021/09/30 08:23:36;;;;;;;9.45;5.95;;;;;;;15.59;70.02;101963.61;1717134;83;21070;-84
2021/09/30 08:26:03;;;;;;;8.45;5.20;;;;;;;15.50;69.97;101966.95;1717554;83;21065;-85
2021/09/30 08:28:30;;;;;;;6.12;4.83;;;;;;;15.44;69.90;101971.20;1717738;82;21245;-84
2021/09/30 08:30:56;;;;;;;5.50;4.70;;;;;;;15.35;69.84;101966.55;1717714;83;22506;-84
2021/09/30 08:33:24;;;;;;;5.90;4.83;;;;;;;15.24;69.66;101966.72;1717598;83;21077;-84
2021/09/30 08:35:51;;;;;;;4.53;4.00;;;;;;;15.26;69.93;101976.94;1717665;83;22346;-85
2021/09/30 08:38:18;;;;;;;4.67;3.90;;;;;;;15.24;69.75;101978.66;1717633;83;21682;-85
2021/09/30 08:40:46;;;;;;;6.65;4.80;;;;;;;15.27;69.82;101982.72;1718234;83;21069;-85
2021/09/30 08:43:13;;;;;;;8.65;4.75;;;;;;;15.25;69.72;101977.38;1718157;83;21793;-84
2021/09/30 08:45:40;;;;;;;6.80;4.05;;;;;;;15.24;69.52;101982.63;1717893;83;21077;-83
2021/09/30 08:48:07;;;;;;;4.70;3.80;;;;;;;15.12;69.54;101980.58;1717969;83;21081;-85
2021/09/30 08:50:38;;;;;;;4.97;3.47;;;;;;;15.03;69.41;101976.35;1718427;83;21651;-89
2021/09/30 08:53:07;;;;;;;4.90;3.42;;;;;;;14.86;69.26;101979.44;1718467;83;21121;-89
2021/09/30 08:55:34;;;;;;;4.92;2.60;;;;;;;14.77;69.44;101987.14;1718570;83;22523;-89
2021/09/30 08:58:03;;;;;;;4.87;2.80;;;;;;;14.66;69.28;101988.59;1718630;83;20998;-89
2021/09/30 09:00:30;;;;;;;4.25;2.72;;;;;;;14.53;69.37;101990.88;1695971;83;21123;-88
2021/09/30 09:02:57;;;;;;;3.27;2.20;;;;;;;14.49;69.52;101986.76;1690377;84;21036;-84
2021/09/30 09:05:25;;;;;;;3.70;2.50;;;;;;;14.49;69.66;101994.30;1689959;84;21021;-84
2021/09/30 09:07:58;;;;;;;5.80;2.47;;;;;;;14.49;69.39;101994.70;1690012;83;21772;-84
2021/09/30 09:10:39;;;;;;;5.95;2.52;;;;;;;14.51;69.41;101997.89;1683330;84;21021;-84
2021/09/30 09:13:16;;;;;;;4.70;2.42;;;;;;;14.63;69.45;102000.02;1665954;85;21100;-84
2021/09/30 09:15:59;;;;;;;5.60;2.42;;;;;;;14.72;69.21;101993.66;1675680;84;21826;-84
2021/09/30 09:18:30;;;;;;;4.92;2.90;;;;;;;14.81;69.11;102007.60;1675823;84;21093;-85
2021/09/30 09:21:15;;;;;;;4.00;2.35;;;;;;;14.88;68.97;102007.33;1675567;84;21757;-85
2021/09/30 09:23:59;;;;;;;7.00;2.55;;;;;;;14.93;68.89;102000.41;1675740;85;21093;-84
2021/09/30 09:26:45;;;;;;;;;;;;;;;15.10;68.76;102007.05;1688120;84;21567;-84
2021/09/30 09:29:14;;;;;;;8.30;2.40;;;;;;;15.24;68.43;102001.20;1690142;84;20515;-79
2021/09/30 09:31:46;;;;;;;7.30;2.80;;;;;;;15.38;68.25;102009.53;1689922;84;21180;-79
2021/09/30 09:34:36;;;;;;;5.45;2.37;;;;;;;15.48;68.10;102007.13;1689990;84;21768;-79
2021/09/30 09:37:32;;;;;;;8.30;2.60;;;;;;;15.61;67.94;102007.44;1689571;84;21571;-80
2021/09/30 09:39:59;;;;;;;7.75;1.98;;;;;;;15.72;67.83;101999.31;1643023;87;21606;-80
2021/09/30 09:42:30;;;;;;;7.10;1.90;;;;;;;15.87;67.58;102012.08;1595755;88;21200;-79
2021/09/30 09:45:07;;;;;;;6.03;2.00;;;;;;;16.07;67.44;102007.24;1636567;87;21845;-80
2021/09/30 09:47:35;;;;;;;4.87;2.20;;;;;;;16.18;66.85;102008.78;1636640;86;21836;-79
2021/09/30 09:50:12;;;;;;;4.20;1.90;;;;;;;16.19;66.45;102002.18;1636617;87;21132;-80
2021/09/30 09:52:54;;;;;;;3.83;1.80;;;;;;;16.28;66.20;101997.51;1636732;87;21115;-80
2021/09/30 09:55:27;;;;;;;2.35;1.40;;;;;;;16.29;65.92;102001.94;1636420;87;21797;-80
2021/09/30 09:58:13;;;;;;;4.12;1.80;;;;;;;16.31;65.69;102002.87;1636631;87;21628;-80
2021/09/30 10:00:53;;;;;;;3.08;1.65;;;;;;;16.36;65.60;102007.86;1636518;86;21458;-80
2021/09/30 10:03:28;;;;;;;6.65;2.08;;;;;;;16.42;65.38;102012.41;1654053;85;21122;-80
2021/09/30 10:05:55;;;;;;;5.60;2.05;;;;;;;16.55;65.58;102014.45;1655522;86;21138;-80
2021/09/30 10:08:22;;;;;;;5.15;1.90;;;;;;;16.68;65.44;102020.92;1655357;86;21205;-80
2021/09/30 10:10:49;;;;;;;5.17;2.08;;;;;;;16.79;65.25;102019.81;1655476;86;21174;-80
2021/09/30 10:13:16;;;;;;;3.00;1.32;;;;;;;16.92;64.94;102018.33;1659776;84;21776;-79
2021/09/30 10:15:43;;;;;;;4.20;2.35;;;;;;;16.98;64.65;102019.32;1686094;84;21093;-79
2021/09/30 10:18:11;;;;;;;2.50;1.72;;;;;;;17.05;64.46;102011.03;1686522;85;21085;-80
2021/09/30 10:20:39;;;;;;;2.77;1.50;;;;;;;17.09;64.54;102007.12;1686518;85;21171;-80
2021/09/30 10:23:07;;;;;;;2.50;1.52;;;;;;;17.13;64.15;102007.18;1686488;85;21594;-79
2021/09/30 10:25:43;;;;;;;6.92;2.10;;;;;;;17.02;63.75;102013.19;1686618;84;21794;-79
2021/09/30 10:28:09;;;;;;;4.85;1.60;;;;;;;16.90;63.65;102013.86;1681983;84;21077;-79
2021/09/30 10:30:47;;;;;;;2.60;1.50;;;;;;;16.82;63.61;102020.80;1679697;85;21145;-80
2021/09/30 10:33:42;;;;;;;2.50;1.40;;;;;;;16.77;63.71;102017.12;1664186;84;21058;-79
2021/09/30 10:36:34;;;;;;;2.37;1.37;;;;;;;16.75;63.71;102020.19;1662479;85;21105;-79
2021/09/30 10:39:25;;;;;;;2.90;1.57;;;;;;;16.79;63.52;102019.37;1662502;85;21786;-79
2021/09/30 10:41:56;;;;;;;1.85;1.30;;;;;;;16.84;63.27;102013.75;1662591;85;21066;-79
2021/09/30 10:44:28;;;;;;;4.90;1.30;;;;;;;16.99;63.35;102013.59;1662530;85;21090;-79
2021/09/30 10:46:58;;;;;;;5.70;1.22;;;;;;;17.17;63.04;102009.91;1662436;85;21090;-80
2021/09/30 10:49:48;;;;;;;3.17;1.30;;;;;;;17.25;62.60;102018.06;1661976;83;21049;-80
2021/09/30 10:52:22;;;;;;;2.55;1.17;;;;;;;17.29;62.28;102015.47;1662441;85;21790;-80
2021/09/30 10:54:57;;;;;;;3.60;1.40;;;;;;;17.18;61.82;102011.72;1662450;86;21094;-80
2021/09/30 10:57:42;;;;;;;4.47;1.10;;;;;;;17.02;61.53;102018.95;1660484;86;21109;-80
2021/09/30 11:00:19;;;;;;;2.17;0.95;;;;;;;16.84;61.42;102018.19;1662532;85;21550;-80
2021/09/30 11:03:09;;;;;;;2.95;2.02;;;;;;;16.67;61.34;102021.36;1662668;85;21166;-80
2021/09/30 11:05:41;;;;;;;4.80;2.00;;;;;;;16.55;61.19;102018.44;1662527;85;21949;-80
2021/09/30 11:08:29;;;;;;;3.27;1.77;;;;;;;16.45;61.45;102013.81;1662319;86;21081;-80
2021/09/30 11:11:08;;;;;;;4.15;1.50;;;;;;;16.36;61.67;102018.93;1662489;85;21039;-79
2021/09/30 11:13:49;;;;;;;7.08;1.87;;;;;;;16.30;61.71;102032.98;1662319;85;21166;-80
2021/09/30 11:16:22;;;;;;;4.03;1.40;;;;;;;16.21;61.75;102015.50;1662131;86;21598;-80
2021/09/30 11:18:58;;;;;;;6.15;1.20;;;;;;;16.37;61.87;102022.95;1661240;84;21762;-80
2021/09/30 11:21:37;;;;;;;5.20;1.50;;;;;;;16.49;61.76;102023.20;1662322;85;21113;-80
2021/09/30 11:24:22;;;;;;;7.92;1.45;;;;;;;16.64;61.80;102027.05;1662294;85;21094;-80
2021/09/30 11:26:54;;;;;;;2.67;1.42;;;;;;;16.80;61.74;102030.89;1662300;85;21153;-79
2021/09/30 11:29:28;;;;;;;2.67;1.37;;;;;;;17.01;61.66;102034.46;1682571;84;21129;-80
2021/09/30 11:32:02;;;;;;;;;;;;;;;17.16;61.18;102033.86;1678129;85;22657;-79
2021/09/30 11:34:41;;;;;;;3.72;1.17;;;;;;;17.26;60.41;102032.70;1683773;84;20849;-80
2021/09/30 11:37:19;;;;;;;7.00;1.82;;;;;;;17.28;60.30;102032.28;1679679;85;21101;-80
2021/09/30 11:39:49;;;;;;;16.95;3.50;;;;;;;17.27;60.05;102033.61;1679537;85;21153;-79
2021/09/30 11:42:16;;;;;;;10.45;2.20;;;;;;;17.31;59.95;102037.23;1648494;86;21086;-79
2021/09/30 11:44:58;;;;;;;5.10;1.12;;;;;;;17.38;59.79;102034.70;1618707;87;21942;-79
2021/09/30 11:47:24;;;;;;;5.97;1.37;;;;;;;17.52;59.64;102028.27;1648590;84;21133;-79
2021/09/30 11:49:51;;;;;;;4.85;1.65;;;;;;;17.69;59.43;102030.77;1648666;86;21521;-79
2021/09/30 11:52:18;;;;;;;1.67;0.98;;;;;;;17.87;59.10;102029.31;1648374;87;21086;-79
2021/09/30 11:54:44;;;;;;;6.90;1.25;;;;;;;18.00;58.93;102031.70;1648467;85;21133;-79
2021/09/30 11:57:26;;;;;;;8.78;1.45;;;;;;;18.01;58.37;102031.73;1618567;88;21776;-79
2021/09/30 12:00:11;;;;;;;5.35;1.27;;;;;;;17.93;57.98;102035.17;1629388;88;21147;-79
2021/09/30 12:02:39;;;;;;;3.17;1.00;;;;;;;17.81;58.02;102034.49;1629274;88;21175;-79
2021/09/30 12:05:08;;;;;;;4.08;1.47;;;;;;;17.72;58.01;102034.34;1627395;87;21356;-79
2021/09/30 12:07:35;;;;;;;5.25;1.10;;;;;;;17.60;57.66;102039.93;1611070;87;21064;-79
2021/09/30 12:10:01;;;;;;;7.70;1.50;;;;;;;17.48;57.65;102043.73;1629593;88;22588;-79
2021/09/30 12:12:34;;;;;;;16.25;1.60;;;;;;;17.51;57.78;102041.11;1629155;88;21139;-79
2021/09/30 12:15:01;;;;;;;4.22;1.22;;;;;;;17.56;57.57;102043.42;1629659;87;21103;-79
2021/09/30 12:17:34;;;;;;;2.72;1.20;;;;;;;17.59;57.84;102048.80;1629146;87;21147;-79
2021/09/30 12:20:01;;;;;;;5.80;1.67;;;;;;;17.64;57.64;102040.47;1629866;88;21173;-79
2021/09/30 12:22:37;;;;;;;4.08;1.05;;;;;;;17.57;57.22;102046.55;1629410;87;21769;-79
2021/09/30 12:25:08;;;;;;;3.95;1.30;;;;;;;17.44;57.14;102056.09;1647387;85;21039;-79
2021/09/30 12:27:37;;;;;;;3.90;1.22;;;;;;;17.29;57.13;102050.06;1648260;85;21110;-79
2021/09/30 12:30:25;;;;;;;5.05;1.15;;;;;;;17.21;57.16;102054.77;1657683;85;21007;-78
2021/09/30 12:32:54;;;;;;;6.65;1.22;;;;;;;17.10;56.93;102054.15;1657714;85;21138;-78
2021/09/30 12:35:31;;;;;;;6.85;1.25;;;;;;;16.90;56.98;102060.40;1657845;85;21274;-78
2021/09/30 12:38:00;;;;;;;2.00;1.10;;;;;;;16.76;57.11;102059.63;1657843;85;21568;-78
2021/09/30 12:40:38;;;;;;;3.05;1.20;;;;;;;16.66;57.38;102057.22;1657833;86;21093;-78
2021/09/30 12:43:13;;;;;;;4.97;1.07;;;;;;;16.69;57.59;102063.94;1657912;85;21061;-78
2021/09/30 12:45:50;;;;;;;2.47;1.17;;;;;;;16.86;57.75;102067.86;1657794;86;21105;-78
2021/09/30 12:48:21;;;;;;;6.20;1.30;;;;;;;17.03;57.54;102072.62;1655923;85;22614;-78
2021/09/30 12:50:57;;;;;;;6.58;0.98;;;;;;;17.14;57.16;102070.18;1656883;85;21105;-78
2021/09/30 12:53:24;;;;;;;6.60;2.87;;;;;;;17.24;56.81;102065.03;1657895;86;21101;-79
2021/09/30 12:55:52;;;;;;;5.55;2.12;;;;;;;17.31;56.67;102066.50;1657780;85;21063;-79
2021/09/30 12:58:39;;;;;;;4.62;1.95;;;;;;;17.34;56.76;102068.76;1657860;86;21113;-79
2021/09/30 13:01:35;;;;;;;5.78;1.47;;;;;;;17.41;56.62;102069.78;1657796;85;22601;-79
2021/09/30 13:04:26;;;;;;;6.03;1.90;;;;;;;17.52;56.11;102065.54;1657719;85;21638;-79
2021/09/30 13:07:07;;;;;;;6.33;1.90;;;;;;;17.55;55.78;102062.95;1649016;86;21027;-79
2021/09/30 13:09:39;;;;;;;6.75;4.00;;;;;;;17.47;55.57;102061.89;1658010;85;21085;-79
2021/09/30 13:12:15;;;;;;;7.28;2.02;;;;;;;17.43;55.55;102063.60;1658268;85;21078;-79
2021/09/30 13:14:49;;;;;;;2.87;1.17;;;;;;;17.50;55.41;102069.94;1657950;86;22706;-79
2021/09/30 13:17:18;;;;;;;2.27;1.40;;;;;;;17.51;55.40;102071.72;1657897;85;21007;-79
2021/09/30 13:19:56;;;;;;;2.83;1.05;;;;;;;17.52;55.07;102066.88;1657306;85;21602;-79
2021/09/30 13:22:36;;;;;;;5.47;1.47;;;;;;;17.44;54.81;102072.06;1657681;85;21217;-79
2021/09/30 13:25:15;;;;;;;2.02;1.20;;;;;;;17.29;54.77;102076.67;1657907;86;21074;-79
2021/09/30 13:27:42;;;;;;;7.53;1.50;;;;;;;17.16;54.83;102075.98;1657637;86;22502;-79
2021/09/30 13:30:15;;;;;;;6.30;1.25;;;;;;;17.07;54.93;102082.02;1652950;85;21145;-79
2021/09/30 13:32:41;;;;;;;2.75;1.47;;;;;;;17.08;55.01;102077.61;1652962;85;21105;-79
2021/09/30 13:35:11;;;;;;;4.95;1.60;;;;;;;17.14;55.26;102075.06;1652293;86;21078;-78
2021/09/30 13:37:37;;;;;;;3.83;1.70;;;;;;;17.27;55.38;102079.74;1652630;85;21101;-79
2021/09/30 13:40:06;;;;;;;5.15;1.40;;;;;;;17.32;55.01;102079.81;1652768;86;22567;-79
2021/09/30 13:42:34;;;;;;;2.20;1.67;;;;;;;17.20;54.81;102080.48;1652679;86;21082;-79
2021/09/30 13:45:03;;;;;;;6.33;2.22;;;;;;;17.03;54.77;102082.83;1652800;85;21142;-78
2021/09/30 13:47:29;;;;;;;3.92;2.45;;;;;;;16.89;54.76;102081.64;1652253;86;21098;-79
2021/09/30 13:49:57;;;;;;;3.72;1.80;;;;;;;16.84;55.20;102076.24;1652866;86;21086;-79
2021/09/30 13:52:24;;;;;;;6.30;1.52;;;;;;;16.89;55.35;102077.66;1652949;85;21790;-78
2021/09/30 13:54:50;;;;;;;1.82;1.12;;;;;;;16.92;55.43;102078.17;1652682;86;21082;-79
2021/09/30 13:57:17;;;;;;;3.95;1.22;;;;;;;16.97;55.38;102082.72;1652785;86;21090;-79
2021/09/30 13:59:44;;;;;;;8.95;5.92;;;;;;;16.97;55.16;102081.80;1652805;86;21067;-79
2021/09/30 14:02:11;;;;;;;10.38;6.53;;;;;;;16.90;55.12;102077.69;1652586;86;21320;-79
2021/09/30 14:04:39;;;;;;;4.97;2.62;;;;;;;16.83;55.24;102082.86;1647307;86;22307;-79
2021/09/30 14:07:07;;;;;;;4.20;1.70;;;;;;;16.73;55.06;102081.73;1652649;86;21012;-79
2021/09/30 14:09:33;;;;;;;10.95;1.62;;;;;;;16.63;55.18;102086.38;1644748;86;21773;-79
2021/09/30 14:12:03;;;;;;;4.33;1.20;;;;;;;16.54;55.19;102084.88;1626649;87;21000;-79
2021/09/30 14:14:30;;;;;;;2.77;1.40;;;;;;;16.51;55.50;102087.02;1627077;86;21101;-79
2021/09/30 14:16:57;;;;;;;5.42;2.30;;;;;;;16.48;55.36;102087.86;1627140;88;21761;-79
2021/09/30 14:19:28;;;;;;;3.50;1.50;;;;;;;16.39;55.40;102082.34;1628812;85;21118;-78
2021/09/30 14:21:53;;;;;;;3.72;1.30;;;;;;;16.32;55.30;102087.94;1659807;85;21041;-79
2021/09/30 14:24:20;;;;;;;2.72;2.00;;;;;;;16.22;55.22;102086.38;1658900;85;21515;-79